createdAt,value
2022-07-25T00:01:47.096Z,38.70
2022-07-25T00:04:14.511Z,39.00
2022-07-25T00:06:42.492Z,39.20
2022-07-25T00:09:09.721Z,39.90
2022-07-25T00:11:36.880Z,39.90
2022-07-25T00:14:04.773Z,40.40
2022-07-25T00:16:32.243Z,40.40
2022-07-25T00:18:59.579Z,40.90
2022-07-25T00:21:26.673Z,40.90
2022-07-25T00:23:53.444Z,40.80
2022-07-25T00:26:20.246Z,41.10
2022-07-25T00:28:47.035Z,41.30
2022-07-25T00:31:13.972Z,41.30
2022-07-25T00:33:41.157Z,41.80
2022-07-25T00:36:08.875Z,42.80
2022-07-25T00:38:35.659Z,43.00
2022-07-25T00:41:04.125Z,43.20
2022-07-25T00:43:31.073Z,43.60
2022-07-25T00:45:59.324Z,43.70
2022-07-25T00:48:27.930Z,43.70
2022-07-25T00:50:56.264Z,43.70
2022-07-25T00:53:23.858Z,43.90
2022-07-25T00:55:51.386Z,44.00
2022-07-25T00:58:18.902Z,44.10
2022-07-25T01:00:46.006Z,44.30
2022-07-25T01:03:12.916Z,44.60
2022-07-25T01:05:39.951Z,44.00
2022-07-25T01:08:07.358Z,44.10
2022-07-25T01:10:35.074Z,44.10
2022-07-25T01:13:02.630Z,44.20
2022-07-25T01:15:29.698Z,44.10
2022-07-25T01:17:56.468Z,44.00
2022-07-25T01:20:25.409Z,44.20
2022-07-25T01:22:53.131Z,44.40
2022-07-25T01:25:20.472Z,44.50
2022-07-25T01:27:54.797Z,44.60
2022-07-25T01:30:24.646Z,45.10
2022-07-25T01:32:51.527Z,45.30
2022-07-25T01:35:18.548Z,45.60
2022-07-25T01:37:46.134Z,45.50
2022-07-25T01:40:14.183Z,45.90
2022-07-25T01:42:41.990Z,45.50
2022-07-25T01:45:09.642Z,45.70
2022-07-25T01:47:36.523Z,46.00
2022-07-25T01:50:04.645Z,46.10
2022-07-25T01:52:31.463Z,46.30
2022-07-25T01:54:58.408Z,46.60
2022-07-25T01:57:30.929Z,46.80
2022-07-25T01:59:58.509Z,47.10
2022-07-25T02:02:25.588Z,47.60
2022-07-25T02:04:52.743Z,48.20
2022-07-25T02:07:19.750Z,48.20
2022-07-25T02:09:46.530Z,48.50
2022-07-25T02:12:13.278Z,48.80
2022-07-25T02:14:40.063Z,49.20
2022-07-25T02:17:07.079Z,49.30
2022-07-25T02:19:34.378Z,49.50
2022-07-25T02:22:01.286Z,50.10
2022-07-25T02:24:28.129Z,49.70
2022-07-25T02:26:55.011Z,49.90
2022-07-25T02:29:22.233Z,49.70
2022-07-25T02:31:49.537Z,50.90
2022-07-25T02:34:16.378Z,50.40
2022-07-25T02:36:43.307Z,51.40
2022-07-25T02:39:10.092Z,50.90
2022-07-25T02:41:37.006Z,50.90
2022-07-25T02:44:05.244Z,51.00
2022-07-25T02:46:32.908Z,51.30
2022-07-25T02:48:59.953Z,51.70
2022-07-25T02:51:26.775Z,51.80
2022-07-25T02:53:58.551Z,52.10
2022-07-25T02:56:29.840Z,52.70
2022-07-25T02:58:57.425Z,53.00
2022-07-25T03:01:24.435Z,52.50
2022-07-25T03:03:51.371Z,53.10
2022-07-25T03:06:18.265Z,54.00
2022-07-25T03:08:45.132Z,53.70
2022-07-25T03:11:13.266Z,54.30
2022-07-25T03:13:40.183Z,54.90
2022-07-25T03:16:07.277Z,56.00
2022-07-25T03:18:34.090Z,57.80
2022-07-25T03:21:00.853Z,59.20
2022-07-25T03:23:28.395Z,61.40
2022-07-25T03:25:56.202Z,62.90
2022-07-25T03:28:24.655Z,64.20
2022-07-25T03:30:52.507Z,63.20
2022-07-25T03:33:19.388Z,63.20
2022-07-25T03:35:46.195Z,62.30
2022-07-25T03:38:12.960Z,64.30
2022-07-25T03:40:39.756Z,65.40
2022-07-25T03:43:06.736Z,65.80
2022-07-25T03:45:33.586Z,63.80
2022-07-25T03:48:00.406Z,63.30
2022-07-25T03:50:27.185Z,64.30
2022-07-25T03:52:54.029Z,64.30
2022-07-25T03:55:20.810Z,64.40
2022-07-25T03:57:47.561Z,63.90
2022-07-25T04:00:14.682Z,64.40
2022-07-25T04:02:41.805Z,64.30
2022-07-25T04:05:09.438Z,64.70
2022-07-25T04:07:36.848Z,64.00
2022-07-25T04:10:06.109Z,65.00
2022-07-25T04:12:33.178Z,65.30
2022-07-25T04:15:00.031Z,65.20
2022-07-25T04:17:26.819Z,64.50
2022-07-25T04:19:53.759Z,64.00
2022-07-25T04:22:20.559Z,64.50
2022-07-25T04:24:47.280Z,64.70
2022-07-25T04:27:14.057Z,64.90
2022-07-25T04:29:40.892Z,65.20
2022-07-25T04:32:07.803Z,65.10
2022-07-25T04:34:34.637Z,65.50
2022-07-25T04:37:01.497Z,64.50
2022-07-25T04:39:28.324Z,62.80
2022-07-25T04:41:55.055Z,62.90
2022-07-25T04:44:21.857Z,62.20
2022-07-25T04:46:48.609Z,60.80
2022-07-25T04:49:15.364Z,60.80
2022-07-25T04:51:42.216Z,60.50
2022-07-25T04:54:09.715Z,60.60
2022-07-25T04:56:36.984Z,59.90
2022-07-25T04:59:06.554Z,59.00
2022-07-25T05:01:34.654Z,58.80
2022-07-25T05:04:01.582Z,58.00
2022-07-25T05:06:28.347Z,57.50
2022-07-25T05:08:55.464Z,57.10
2022-07-25T05:11:22.322Z,56.90
2022-07-25T05:13:49.087Z,56.60
2022-07-25T05:16:16.001Z,56.10
2022-07-25T05:18:42.859Z,55.20
2022-07-25T05:21:13.012Z,54.40
2022-07-25T05:23:41.061Z,53.50
2022-07-25T05:26:07.865Z,53.30
2022-07-25T05:28:34.679Z,53.00
2022-07-25T05:31:01.560Z,53.10
2022-07-25T05:33:28.606Z,53.10
2022-07-25T05:35:55.493Z,52.80
2022-07-25T05:38:22.320Z,52.40
2022-07-25T05:40:51.998Z,52.30
2022-07-25T05:43:19.225Z,52.40
2022-07-25T05:45:47.439Z,52.90
2022-07-25T05:48:17.468Z,52.80
2022-07-25T05:50:46.041Z,53.70
2022-07-25T05:53:12.965Z,53.50
2022-07-25T05:55:40.755Z,53.30
2022-07-25T05:58:09.398Z,52.60
2022-07-25T06:00:37.400Z,52.80
2022-07-25T06:03:04.449Z,52.70
2022-07-25T06:05:31.696Z,52.80
2022-07-25T06:07:58.408Z,52.90
2022-07-25T06:10:25.442Z,53.10
2022-07-25T06:12:52.170Z,52.60
2022-07-25T06:15:22.385Z,52.70
2022-07-25T06:17:53.743Z,52.70
2022-07-25T06:20:20.652Z,52.20
2022-07-25T06:22:47.471Z,51.50
2022-07-25T06:25:15.003Z,51.20
2022-07-25T06:27:41.993Z,50.70
2022-07-25T06:30:19.315Z,50.30
2022-07-25T06:32:50.946Z,50.10
2022-07-25T06:35:18.224Z,49.40
2022-07-25T06:37:45.446Z,49.30
2022-07-25T06:40:12.812Z,48.80
2022-07-25T06:42:40.622Z,48.50
2022-07-25T06:45:11.958Z,47.60
2022-07-25T06:47:40.717Z,47.90
2022-07-25T06:50:11.883Z,47.10
2022-07-25T06:52:39.230Z,47.20
2022-07-25T06:55:07.628Z,47.50
2022-07-25T06:57:34.773Z,45.80
2022-07-25T07:00:01.857Z,45.70
2022-07-25T07:02:28.563Z,45.50
2022-07-25T07:04:55.287Z,46.30
2022-07-25T07:07:22.174Z,44.90
2022-07-25T07:09:48.973Z,44.90
2022-07-25T07:12:15.706Z,44.70
2022-07-25T07:14:44.366Z,44.10
2022-07-25T07:17:11.502Z,44.60
2022-07-25T07:19:44.358Z,43.80
2022-07-25T07:22:11.277Z,43.50
2022-07-25T07:24:45.063Z,44.00
2022-07-25T07:27:12.000Z,43.20
2022-07-25T07:29:38.924Z,42.50
2022-07-25T07:32:07.033Z,42.10
2022-07-25T07:34:34.056Z,42.20
2022-07-25T07:37:00.827Z,40.70
2022-07-25T07:39:27.603Z,39.90
2022-07-25T07:41:54.346Z,39.30
2022-07-25T07:44:21.140Z,39.70
2022-07-25T07:46:48.140Z,38.90
2022-07-25T07:49:14.939Z,38.30
2022-07-25T07:51:41.781Z,38.60
2022-07-25T07:54:27.447Z,37.80
2022-07-25T07:56:54.151Z,37.10
2022-07-25T07:59:20.907Z,37.60
2022-07-25T08:01:47.820Z,37.20
2022-07-25T08:04:15.594Z,36.50
2022-07-25T08:06:43.215Z,36.20
2022-07-25T08:09:10.338Z,35.60
2022-07-25T08:11:37.247Z,35.30
2022-07-25T08:14:05.459Z,33.70
2022-07-25T08:16:33.084Z,32.90
2022-07-25T08:18:59.992Z,32.30
2022-07-25T08:21:26.790Z,31.70
2022-07-25T08:23:53.494Z,31.30
2022-07-25T08:26:20.355Z,30.70
2022-07-25T08:28:48.388Z,30.60
2022-07-25T08:31:17.044Z,30.50
2022-07-25T08:33:43.837Z,30.00
2022-07-25T08:36:11.577Z,29.60
2022-07-25T08:38:38.349Z,29.80
2022-07-25T08:41:05.302Z,29.50
2022-07-25T08:43:35.915Z,28.90
2022-07-25T08:46:04.959Z,28.80
2022-07-25T08:48:31.909Z,29.50
2022-07-25T08:51:00.023Z,29.00
2022-07-25T08:53:33.283Z,28.80
2022-07-25T08:56:04.183Z,28.80
2022-07-25T08:58:35.001Z,29.00
2022-07-25T09:01:02.249Z,28.30
2022-07-25T09:03:29.077Z,28.30
2022-07-25T09:05:55.883Z,28.20
2022-07-25T09:08:22.606Z,28.30
2022-07-25T09:10:53.421Z,28.50
2022-07-25T09:13:22.216Z,28.70
2022-07-25T09:15:53.661Z,28.80
2022-07-25T09:18:25.742Z,28.70
2022-07-25T09:20:59.086Z,29.20
2022-07-25T09:23:39.000Z,28.70
2022-07-25T09:26:09.896Z,27.70
2022-07-25T09:28:42.373Z,27.20
2022-07-25T09:31:12.622Z,27.20
2022-07-25T09:33:47.668Z,27.00
2022-07-25T09:36:15.718Z,27.40
2022-07-25T09:39:01.708Z,26.80
2022-07-25T09:41:40.138Z,26.70
2022-07-25T09:44:23.172Z,26.70
2022-07-25T09:46:50.510Z,27.00
2022-07-25T09:49:17.447Z,26.80
2022-07-25T09:51:44.643Z,27.10
2022-07-25T09:54:11.770Z,27.50
2022-07-25T09:56:38.691Z,28.40
2022-07-25T09:59:06.726Z,28.70
2022-07-25T10:01:42.298Z,28.50
2022-07-25T10:04:22.865Z,29.00
2022-07-25T10:07:09.808Z,29.10
2022-07-25T10:09:50.948Z,29.60
2022-07-25T10:12:23.201Z,30.00
2022-07-25T10:15:11.203Z,30.80
2022-07-25T10:17:39.866Z,31.20
2022-07-25T10:20:10.518Z,32.80
2022-07-25T10:22:57.870Z,34.80
2022-07-25T10:25:25.489Z,36.60
2022-07-25T10:28:01.168Z,38.90
2022-07-25T10:30:34.481Z,39.90
2022-07-25T10:33:15.805Z,42.60
2022-07-25T10:35:42.789Z,43.80
2022-07-25T10:38:09.995Z,43.10
2022-07-25T10:40:44.951Z,43.40
2022-07-25T10:43:13.123Z,42.50
2022-07-25T10:45:54.315Z,43.00
2022-07-25T10:48:30.515Z,42.10
2022-07-25T10:51:03.587Z,42.20
2022-07-25T10:53:47.382Z,40.80
2022-07-25T10:56:19.814Z,40.90
2022-07-25T10:58:58.019Z,39.10
2022-07-25T11:01:29.397Z,40.30
2022-07-25T11:04:14.370Z,39.60
2022-07-25T11:06:43.149Z,37.90
2022-07-25T11:09:24.961Z,37.40
2022-07-25T11:11:58.609Z,37.30
2022-07-25T11:14:33.257Z,35.60
2022-07-25T11:17:22.510Z,36.50
2022-07-25T11:20:04.454Z,34.90
2022-07-25T11:22:32.875Z,34.20
2022-07-25T11:25:00.777Z,33.30
2022-07-25T11:27:32.863Z,33.40
2022-07-25T11:30:19.942Z,33.30
2022-07-25T11:32:56.131Z,31.90
2022-07-25T11:35:33.304Z,31.70
2022-07-25T11:38:02.296Z,31.20
2022-07-25T11:40:30.866Z,30.70
2022-07-25T11:43:01.468Z,30.70
2022-07-25T11:45:30.814Z,30.90
2022-07-25T11:48:14.326Z,30.40
2022-07-25T11:50:43.501Z,30.90
2022-07-25T11:53:14.838Z,31.10
2022-07-25T11:55:44.079Z,30.00
2022-07-25T11:58:12.958Z,29.40
2022-07-25T12:00:42.612Z,28.50
2022-07-25T12:03:15.593Z,27.90
2022-07-25T12:05:46.934Z,27.70
2022-07-25T12:08:18.753Z,27.40
2022-07-25T12:10:55.031Z,27.10
2022-07-25T12:13:23.237Z,27.10
2022-07-25T12:15:50.623Z,27.10
2022-07-25T12:18:17.377Z,26.90
2022-07-25T12:20:44.477Z,26.60
2022-07-25T12:23:13.201Z,26.70
2022-07-25T12:25:43.179Z,26.90
2022-07-25T12:28:11.250Z,26.80
2022-07-25T12:30:39.644Z,27.40
2022-07-25T12:33:07.288Z,27.20
2022-07-25T12:35:37.178Z,27.00
2022-07-25T12:38:04.956Z,27.20
2022-07-25T12:40:32.067Z,27.00
2022-07-25T12:42:59.435Z,26.90
2022-07-25T12:45:26.447Z,27.20
2022-07-25T12:47:53.923Z,27.40
2022-07-25T12:50:20.835Z,27.70
2022-07-25T12:52:48.170Z,28.20
2022-07-25T12:55:18.451Z,27.50
2022-07-25T12:57:45.865Z,27.10
2022-07-25T13:00:16.023Z,27.30
2022-07-25T13:02:44.022Z,27.60
2022-07-25T13:05:11.146Z,27.40
2022-07-25T13:07:38.294Z,27.50
2022-07-25T13:10:06.479Z,27.50
2022-07-25T13:12:33.662Z,27.50
2022-07-25T13:15:00.461Z,26.50
2022-07-25T13:17:27.980Z,26.30
2022-07-25T13:19:56.333Z,26.00
2022-07-25T13:22:24.217Z,26.30
2022-07-25T13:24:51.189Z,26.40
2022-07-25T13:27:19.414Z,25.90
2022-07-25T13:29:47.542Z,26.10
2022-07-25T13:32:14.420Z,26.40
2022-07-25T13:34:41.265Z,26.20
2022-07-25T13:37:08.099Z,25.10
2022-07-25T13:39:35.761Z,24.70
2022-07-25T13:42:03.493Z,24.60
2022-07-25T13:44:30.259Z,25.20
2022-07-25T13:46:58.653Z,25.80
2022-07-25T13:49:25.914Z,26.00
2022-07-25T13:51:52.853Z,25.90
2022-07-25T13:54:19.643Z,25.40
2022-07-25T13:56:47.440Z,24.80
2022-07-25T13:59:20.493Z,24.60
2022-07-25T14:01:48.414Z,25.10
2022-07-25T14:04:15.215Z,25.10
2022-07-25T14:06:42.338Z,25.40
2022-07-25T14:09:09.741Z,24.80
2022-07-25T14:11:36.887Z,24.30
2022-07-25T14:14:03.789Z,23.10
2022-07-25T14:16:30.875Z,21.80
2022-07-25T14:18:57.724Z,22.40
2022-07-25T14:21:25.482Z,23.00
2022-07-25T14:23:52.822Z,23.30
2022-07-25T14:26:19.807Z,23.30
2022-07-25T14:28:47.464Z,23.30
2022-07-25T14:31:14.408Z,23.90
2022-07-25T14:33:41.314Z,24.40
2022-07-25T14:36:09.890Z,24.30
2022-07-25T14:38:36.762Z,24.70
2022-07-25T14:41:07.734Z,24.50
2022-07-25T14:43:37.377Z,24.60
2022-07-25T14:46:05.109Z,24.80
2022-07-25T14:48:32.066Z,25.10
2022-07-25T14:50:58.922Z,25.40
2022-07-25T14:53:25.684Z,25.60
2022-07-25T14:55:52.436Z,25.90
2022-07-25T14:58:19.274Z,25.90
2022-07-25T15:00:46.307Z,26.30
2022-07-25T15:03:15.305Z,26.70
2022-07-25T15:05:42.286Z,27.10
2022-07-25T15:08:09.362Z,27.60
2022-07-25T15:10:36.067Z,28.20
2022-07-25T15:13:29.510Z,28.60
2022-07-25T15:15:49.616Z,28.40
2022-07-25T15:18:16.433Z,28.50
2022-07-25T15:20:43.218Z,29.40
2022-07-25T15:23:10.298Z,29.80
2022-07-25T15:28:24.454Z,30.70
2022-07-25T15:30:51.562Z,31.00
2022-07-25T15:33:19.188Z,31.00
2022-07-25T15:35:47.190Z,31.60
2022-07-25T15:38:17.884Z,32.10
2022-07-25T15:40:45.311Z,32.10
2022-07-25T15:43:12.159Z,32.20
2022-07-25T15:45:42.710Z,32.60
2022-07-25T15:48:11.661Z,33.00
2022-07-25T15:50:44.332Z,33.30
2022-07-25T15:53:12.238Z,33.40
2022-07-25T15:55:40.414Z,33.60
2022-07-25T15:58:07.870Z,33.70
2022-07-25T16:00:34.734Z,34.00
2022-07-25T16:03:01.624Z,34.40
2022-07-25T16:05:29.767Z,34.20
2022-07-25T16:07:57.556Z,34.20
2022-07-25T16:10:24.330Z,34.20
2022-07-25T16:12:51.128Z,34.10
2022-07-25T16:15:19.146Z,34.00
2022-07-25T16:17:45.989Z,34.10
2022-07-25T16:20:14.660Z,34.10
2022-07-25T16:22:41.471Z,34.00
2022-07-25T16:25:08.581Z,34.10
2022-07-25T16:27:35.411Z,32.80
2022-07-25T16:30:02.186Z,32.60
2022-07-25T16:32:28.961Z,32.30
2022-07-25T16:34:55.687Z,32.00
2022-07-25T16:37:22.507Z,32.00
2022-07-25T16:39:49.229Z,31.20
2022-07-25T16:42:16.165Z,30.70
2022-07-25T16:44:43.016Z,30.30
2022-07-25T16:47:10.120Z,30.00
2022-07-25T16:49:37.071Z,29.00
2022-07-25T16:52:03.910Z,29.20
2022-07-25T16:54:30.621Z,28.30
2022-07-25T16:56:59.775Z,28.30
2022-07-25T16:59:26.950Z,28.30
2022-07-25T17:01:54.123Z,28.10
2022-07-25T17:04:21.109Z,28.10
2022-07-25T17:06:49.105Z,28.30
2022-07-25T17:09:15.902Z,28.40
2022-07-25T17:11:42.972Z,28.60
2022-07-25T17:14:09.946Z,28.40
2022-07-25T17:16:37.098Z,28.80
2022-07-25T17:19:04.366Z,28.80
2022-07-25T17:21:31.341Z,29.10
2022-07-25T17:23:58.126Z,29.10
2022-07-25T17:26:24.970Z,29.00
2022-07-25T17:28:53.573Z,29.20
2022-07-25T17:31:20.333Z,29.00
2022-07-25T17:33:47.829Z,29.20
2022-07-25T17:36:14.944Z,29.30
2022-07-25T17:38:42.011Z,29.40
2022-07-25T17:41:08.753Z,29.30
2022-07-25T17:43:35.675Z,29.30
2022-07-25T17:46:02.532Z,29.30
2022-07-25T17:48:29.610Z,29.40
2022-07-25T17:50:56.427Z,29.60
2022-07-25T17:53:23.195Z,29.80
2022-07-25T17:55:50.035Z,30.00
2022-07-25T17:58:16.840Z,29.90
2022-07-25T18:00:43.656Z,30.10
2022-07-25T18:03:10.493Z,30.30
2022-07-25T18:05:37.445Z,30.60
2022-07-25T18:08:04.905Z,30.70
2022-07-25T18:10:31.690Z,30.90
2022-07-25T18:13:00.775Z,31.10
2022-07-25T18:15:27.966Z,30.90
2022-07-25T18:17:54.805Z,31.20
2022-07-25T18:20:21.699Z,31.30
2022-07-25T18:22:48.544Z,31.20
2022-07-25T18:25:15.396Z,31.30
2022-07-25T18:27:43.895Z,31.40
2022-07-25T18:30:11.755Z,31.20
2022-07-25T18:32:39.137Z,31.20
2022-07-25T18:35:07.795Z,31.40
2022-07-25T18:37:35.397Z,31.20
2022-07-25T18:40:02.247Z,30.60
2022-07-25T18:42:30.155Z,30.20
2022-07-25T18:44:57.359Z,30.10
2022-07-25T18:47:26.499Z,30.00
2022-07-25T18:49:59.575Z,30.00
2022-07-25T18:52:26.718Z,29.40
2022-07-25T18:54:53.778Z,29.10
2022-07-25T18:57:20.702Z,29.00
2022-07-25T18:59:47.830Z,28.40
2022-07-25T19:02:14.630Z,28.60
2022-07-25T19:04:41.610Z,28.80
2022-07-25T19:07:09.150Z,28.60
2022-07-25T19:09:36.057Z,28.80
2022-07-25T19:12:03.012Z,29.00
2022-07-25T19:14:30.818Z,29.20
2022-07-25T19:16:58.368Z,29.30
2022-07-25T19:19:26.079Z,29.80
2022-07-25T19:21:53.048Z,29.80
2022-07-25T19:24:19.889Z,30.00
2022-07-25T19:26:48.071Z,30.00
2022-07-25T19:29:16.484Z,29.80
2022-07-25T19:31:43.582Z,29.70
2022-07-25T19:34:10.864Z,30.00
2022-07-25T19:36:38.290Z,29.70
2022-07-25T19:39:06.263Z,30.00
2022-07-25T19:41:33.842Z,30.00
2022-07-25T19:44:00.837Z,30.00
2022-07-25T19:46:31.330Z,30.10
2022-07-25T19:48:58.420Z,30.20
2022-07-25T19:51:25.675Z,30.50
2022-07-25T19:53:52.781Z,30.30
2022-07-25T19:56:20.309Z,30.50
2022-07-25T19:58:47.376Z,30.30
2022-07-25T20:01:14.730Z,30.40
2022-07-25T20:03:41.952Z,30.30
2022-07-25T20:06:09.379Z,30.50
2022-07-25T20:08:39.274Z,30.50
2022-07-25T20:11:07.379Z,30.40
2022-07-25T20:13:35.350Z,30.40
2022-07-25T20:16:03.887Z,30.50
2022-07-25T20:18:30.892Z,30.60
2022-07-25T20:20:58.222Z,30.50
2022-07-25T20:23:25.449Z,30.80
2022-07-25T20:25:52.321Z,30.40
2022-07-25T20:28:19.179Z,30.40
2022-07-25T20:30:46.023Z,30.50
2022-07-25T20:33:12.890Z,30.70
2022-07-25T20:35:39.622Z,30.40
2022-07-25T20:38:09.313Z,30.60
2022-07-25T20:40:39.260Z,30.80
2022-07-25T20:43:08.747Z,30.60
2022-07-25T20:45:35.736Z,30.60
2022-07-25T20:48:03.672Z,30.50
2022-07-25T20:50:30.810Z,30.70
2022-07-25T20:52:58.000Z,30.50
2022-07-25T20:55:24.899Z,30.60
2022-07-25T20:57:51.683Z,30.70
2022-07-25T21:00:18.459Z,30.80
2022-07-25T21:02:45.403Z,31.10
2022-07-25T21:05:12.254Z,31.20
2022-07-25T21:07:39.109Z,31.50
2022-07-25T21:10:06.281Z,32.00
2022-07-25T21:12:33.382Z,31.90
2022-07-25T21:15:01.296Z,32.00
2022-07-25T21:17:28.389Z,32.30
2022-07-25T21:19:55.152Z,32.40
2022-07-25T21:22:22.123Z,32.10
2022-07-25T21:24:52.361Z,32.30
2022-07-25T21:27:19.827Z,32.60
2022-07-25T21:29:46.869Z,32.50
2022-07-25T21:32:13.969Z,32.40
2022-07-25T21:34:41.878Z,32.90
2022-07-25T21:37:09.338Z,32.40
2022-07-25T21:39:36.126Z,32.60
2022-07-25T21:42:03.329Z,32.20
2022-07-25T21:44:31.116Z,32.00
2022-07-25T21:46:57.847Z,32.20
2022-07-25T21:49:43.531Z,31.60
2022-07-25T21:52:13.735Z,31.80
2022-07-25T21:54:41.969Z,31.80
2022-07-25T21:57:13.563Z,31.50
2022-07-25T21:59:44.375Z,29.50
2022-07-25T22:02:12.218Z,1.00
2022-07-25T22:04:39.111Z,1.00
2022-07-25T22:07:06.315Z,1.00
2022-07-25T22:09:33.067Z,1.00
2022-07-25T22:12:00.071Z,1.00
2022-07-25T22:14:27.059Z,1.00
2022-07-25T22:16:53.826Z,1.00
2022-07-25T22:19:22.535Z,1.00
2022-07-25T22:21:50.173Z,1.00
2022-07-25T22:24:17.174Z,1.00
2022-07-25T22:26:44.036Z,1.00
2022-07-25T22:29:11.454Z,1.00
2022-07-25T22:31:39.080Z,1.00
2022-07-25T22:34:06.322Z,1.00
2022-07-25T22:36:33.103Z,1.00
2022-07-25T22:38:59.846Z,1.00
2022-07-25T22:41:26.618Z,1.00
2022-07-25T22:43:58.659Z,1.00
2022-07-25T22:46:27.022Z,1.00
2022-07-25T22:48:53.954Z,1.00
2022-07-25T22:51:20.762Z,1.00
2022-07-25T22:53:47.646Z,1.00
2022-07-25T22:56:14.455Z,1.00
2022-07-25T22:58:41.314Z,1.00
2022-07-25T23:01:08.148Z,1.00
2022-07-25T23:03:35.945Z,1.00
2022-07-25T23:06:02.874Z,1.00
2022-07-25T23:08:29.921Z,1.00
2022-07-25T23:10:56.767Z,1.00
2022-07-25T23:13:23.665Z,1.00
2022-07-25T23:15:51.474Z,1.00
2022-07-25T23:18:19.038Z,1.00
2022-07-25T23:20:45.996Z,1.00
2022-07-25T23:23:13.026Z,1.00
2022-07-25T23:25:39.940Z,1.00
2022-07-25T23:28:06.906Z,1.00
2022-07-25T23:30:39.716Z,1.00
2022-07-25T23:33:07.500Z,1.00
2022-07-25T23:35:35.266Z,1.00
2022-07-25T23:38:02.855Z,1.00
2022-07-25T23:40:29.889Z,1.00
2022-07-25T23:42:56.692Z,1.00
2022-07-25T23:45:26.366Z,1.00
2022-07-25T23:47:55.865Z,1.00
2022-07-25T23:50:23.639Z,1.00
2022-07-25T23:52:50.738Z,1.00
2022-07-25T23:55:17.649Z,1.00
2022-07-25T23:57:44.440Z,1.00
